sensor_id;sensor_type;location;lat;lon;timestamp;temperature;humidity
15241;DHT22;7723;52.170;9.978;2022-09-09T00:00:22;14.60;99.90
15241;DHT22;7723;52.170;9.978;2022-09-09T00:02:55;14.50;99.90
15241;DHT22;7723;52.170;9.978;2022-09-09T00:05:31;14.50;99.90
15241;DHT22;7723;52.170;9.978;2022-09-09T00:08:02;14.40;99.90
15241;DHT22;7723;52.170;9.978;2022-09-09T00:10:34;14.40;99.90
15241;DHT22;7723;52.170;9.978;2022-09-09T00:13:16;14.40;99.90
15241;DHT22;7723;52.170;9.978;2022-09-09T00:15:52;14.30;99.90
15241;DHT22;7723;52.170;9.978;2022-09-09T00:18:25;14.30;99.90
15241;DHT22;7723;52.170;9.978;2022-09-09T00:20:58;14.20;99.90
15241;DHT22;7723;52.170;9.978;2022-09-09T00:23:30;14.10;99.90
15241;DHT22;7723;52.170;9.978;2022-09-09T00:26:04;14.20;99.90
15241;DHT22;7723;52.170;9.978;2022-09-09T00:28:39;14.10;99.90
15241;DHT22;7723;52.170;9.978;2022-09-09T00:31:12;14.10;99.90
15241;DHT22;7723;52.170;9.978;2022-09-09T00:33:40;14.00;99.90
15241;DHT22;7723;52.170;9.978;2022-09-09T00:36:13;14.00;99.90
15241;DHT22;7723;52.170;9.978;2022-09-09T00:38:45;14.00;99.90
15241;DHT22;7723;52.170;9.978;2022-09-09T00:41:19;14.00;99.90
15241;DHT22;7723;52.170;9.978;2022-09-09T00:43:56;14.00;99.90
15241;DHT22;7723;52.170;9.978;2022-09-09T00:46:47;14.00;99.90
15241;DHT22;7723;52.170;9.978;2022-09-09T00:49:25;13.90;99.90
15241;DHT22;7723;52.170;9.978;2022-09-09T00:52:07;14.00;99.90
15241;DHT22;7723;52.170;9.978;2022-09-09T00:54:46;13.90;99.90
15241;DHT22;7723;52.170;9.978;2022-09-09T00:57:23;13.90;99.90
15241;DHT22;7723;52.170;9.978;2022-09-09T00:59:59;14.00;99.90
15241;DHT22;7723;52.170;9.978;2022-09-09T01:02:41;14.00;99.90
15241;DHT22;7723;52.170;9.978;2022-09-09T01:05:14;14.00;99.90
15241;DHT22;7723;52.170;9.978;2022-09-09T01:07:46;13.90;99.90
15241;DHT22;7723;52.170;9.978;2022-09-09T01:10:21;14.00;99.90
15241;DHT22;7723;52.170;9.978;2022-09-09T01:12:54;14.00;99.90
15241;DHT22;7723;52.170;9.978;2022-09-09T01:15:27;14.10;99.90
15241;DHT22;7723;52.170;9.978;2022-09-09T01:17:59;14.00;99.90
15241;DHT22;7723;52.170;9.978;2022-09-09T01:20:31;14.00;99.90
15241;DHT22;7723;52.170;9.978;2022-09-09T01:23:22;14.00;99.90
15241;DHT22;7723;52.170;9.978;2022-09-09T01:26:13;14.00;99.90
15241;DHT22;7723;52.170;9.978;2022-09-09T01:28:43;14.00;99.90
15241;DHT22;7723;52.170;9.978;2022-09-09T01:31:14;14.00;99.90
15241;DHT22;7723;52.170;9.978;2022-09-09T01:33:42;14.00;99.90
15241;DHT22;7723;52.170;9.978;2022-09-09T01:36:12;14.10;99.90
15241;DHT22;7723;52.170;9.978;2022-09-09T01:38:40;14.20;99.90
15241;DHT22;7723;52.170;9.978;2022-09-09T01:41:09;14.20;99.90
15241;DHT22;7723;52.170;9.978;2022-09-09T01:43:36;14.20;99.90
15241;DHT22;7723;52.170;9.978;2022-09-09T01:46:04;14.20;99.90
15241;DHT22;7723;52.170;9.978;2022-09-09T01:48:31;14.20;99.90
15241;DHT22;7723;52.170;9.978;2022-09-09T01:50:58;14.30;99.90
15241;DHT22;7723;52.170;9.978;2022-09-09T01:53:25;14.30;99.90
15241;DHT22;7723;52.170;9.978;2022-09-09T01:56:00;14.30;99.90
15241;DHT22;7723;52.170;9.978;2022-09-09T01:58:34;14.30;99.90
15241;DHT22;7723;52.170;9.978;2022-09-09T02:01:08;14.30;99.90
15241;DHT22;7723;52.170;9.978;2022-09-09T02:03:41;14.30;99.90
15241;DHT22;7723;52.170;9.978;2022-09-09T02:06:19;14.30;99.90
15241;DHT22;7723;52.170;9.978;2022-09-09T02:08:52;14.20;99.90
15241;DHT22;7723;52.170;9.978;2022-09-09T02:11:22;14.20;99.90
15241;DHT22;7723;52.170;9.978;2022-09-09T02:13:54;14.20;99.90
15241;DHT22;7723;52.170;9.978;2022-09-09T02:16:26;14.30;99.90
15241;DHT22;7723;52.170;9.978;2022-09-09T02:18:57;14.30;99.90
15241;DHT22;7723;52.170;9.978;2022-09-09T02:21:29;14.40;99.90
15241;DHT22;7723;52.170;9.978;2022-09-09T02:23:59;14.40;99.90
15241;DHT22;7723;52.170;9.978;2022-09-09T02:26:32;14.50;99.90
15241;DHT22;7723;52.170;9.978;2022-09-09T02:29:06;14.50;99.90
15241;DHT22;7723;52.170;9.978;2022-09-09T02:31:35;14.40;99.90
15241;DHT22;7723;52.170;9.978;2022-09-09T02:34:05;14.40;99.90
15241;DHT22;7723;52.170;9.978;2022-09-09T02:36:37;14.40;99.90
15241;DHT22;7723;52.170;9.978;2022-09-09T02:39:08;14.40;99.90
15241;DHT22;7723;52.170;9.978;2022-09-09T02:41:38;14.40;99.90
15241;DHT22;7723;52.170;9.978;2022-09-09T02:44:11;14.40;99.90
15241;DHT22;7723;52.170;9.978;2022-09-09T02:46:54;14.50;99.90
15241;DHT22;7723;52.170;9.978;2022-09-09T02:49:30;14.50;99.90
15241;DHT22;7723;52.170;9.978;2022-09-09T02:52:05;14.60;99.90
15241;DHT22;7723;52.170;9.978;2022-09-09T02:54:34;14.60;99.90
15241;DHT22;7723;52.170;9.978;2022-09-09T02:57:06;14.60;99.90
15241;DHT22;7723;52.170;9.978;2022-09-09T02:59:36;14.40;99.90
15241;DHT22;7723;52.170;9.978;2022-09-09T03:02:04;14.40;99.90
15241;DHT22;7723;52.170;9.978;2022-09-09T03:04:31;14.50;99.90
15241;DHT22;7723;52.170;9.978;2022-09-09T03:06:59;14.40;99.90
15241;DHT22;7723;52.170;9.978;2022-09-09T03:09:26;14.40;99.90
15241;DHT22;7723;52.170;9.978;2022-09-09T03:11:53;14.40;99.90
15241;DHT22;7723;52.170;9.978;2022-09-09T03:14:21;14.40;99.90
15241;DHT22;7723;52.170;9.978;2022-09-09T03:16:52;14.40;99.90
15241;DHT22;7723;52.170;9.978;2022-09-09T03:19:19;14.40;99.90
15241;DHT22;7723;52.170;9.978;2022-09-09T03:21:47;14.50;99.90
15241;DHT22;7723;52.170;9.978;2022-09-09T03:24:15;14.50;99.90
15241;DHT22;7723;52.170;9.978;2022-09-09T03:26:42;14.50;99.90
15241;DHT22;7723;52.170;9.978;2022-09-09T03:29:11;14.50;99.90
15241;DHT22;7723;52.170;9.978;2022-09-09T03:31:39;14.60;99.90
15241;DHT22;7723;52.170;9.978;2022-09-09T03:34:07;14.60;99.90
15241;DHT22;7723;52.170;9.978;2022-09-09T03:36:35;14.60;99.90
15241;DHT22;7723;52.170;9.978;2022-09-09T03:39:03;14.50;99.90
15241;DHT22;7723;52.170;9.978;2022-09-09T03:41:30;14.60;99.90
15241;DHT22;7723;52.170;9.978;2022-09-09T03:43:57;14.60;99.90
15241;DHT22;7723;52.170;9.978;2022-09-09T03:46:25;14.70;99.90
15241;DHT22;7723;52.170;9.978;2022-09-09T03:48:52;14.70;99.90
15241;DHT22;7723;52.170;9.978;2022-09-09T03:51:21;14.70;99.90
15241;DHT22;7723;52.170;9.978;2022-09-09T03:53:48;14.70;99.90
15241;DHT22;7723;52.170;9.978;2022-09-09T03:56:16;14.70;99.90
15241;DHT22;7723;52.170;9.978;2022-09-09T03:58:43;14.60;99.90
15241;DHT22;7723;52.170;9.978;2022-09-09T04:01:11;14.60;99.90
15241;DHT22;7723;52.170;9.978;2022-09-09T04:03:40;14.60;99.90
15241;DHT22;7723;52.170;9.978;2022-09-09T04:06:09;14.70;99.90
15241;DHT22;7723;52.170;9.978;2022-09-09T04:08:38;14.70;99.90
15241;DHT22;7723;52.170;9.978;2022-09-09T04:11:06;14.70;99.90
15241;DHT22;7723;52.170;9.978;2022-09-09T04:13:33;14.80;99.90
15241;DHT22;7723;52.170;9.978;2022-09-09T04:16:02;14.80;99.90
15241;DHT22;7723;52.170;9.978;2022-09-09T04:18:30;14.80;99.90
15241;DHT22;7723;52.170;9.978;2022-09-09T04:20:58;14.80;99.90
15241;DHT22;7723;52.170;9.978;2022-09-09T04:23:27;14.80;99.90
15241;DHT22;7723;52.170;9.978;2022-09-09T04:25:57;14.90;99.90
15241;DHT22;7723;52.170;9.978;2022-09-09T04:28:27;15.00;99.90
15241;DHT22;7723;52.170;9.978;2022-09-09T04:30:54;15.10;99.90
15241;DHT22;7723;52.170;9.978;2022-09-09T04:33:23;15.20;99.90
15241;DHT22;7723;52.170;9.978;2022-09-09T04:35:52;15.20;99.90
15241;DHT22;7723;52.170;9.978;2022-09-09T04:38:20;15.20;99.90
15241;DHT22;7723;52.170;9.978;2022-09-09T04:40:49;15.20;99.90
15241;DHT22;7723;52.170;9.978;2022-09-09T04:43:18;15.20;99.90
15241;DHT22;7723;52.170;9.978;2022-09-09T04:45:47;15.20;99.90
15241;DHT22;7723;52.170;9.978;2022-09-09T04:48:15;15.20;99.90
15241;DHT22;7723;52.170;9.978;2022-09-09T04:50:42;15.20;99.90
15241;DHT22;7723;52.170;9.978;2022-09-09T04:53:09;15.20;99.90
15241;DHT22;7723;52.170;9.978;2022-09-09T04:55:36;15.20;99.90
15241;DHT22;7723;52.170;9.978;2022-09-09T04:58:04;15.30;99.90
15241;DHT22;7723;52.170;9.978;2022-09-09T05:00:33;15.20;99.90
15241;DHT22;7723;52.170;9.978;2022-09-09T05:03:03;15.20;99.90
15241;DHT22;7723;52.170;9.978;2022-09-09T05:05:31;15.20;99.90
15241;DHT22;7723;52.170;9.978;2022-09-09T05:08:01;15.20;99.90
15241;DHT22;7723;52.170;9.978;2022-09-09T05:10:29;15.20;99.90
15241;DHT22;7723;52.170;9.978;2022-09-09T05:12:56;15.20;99.90
15241;DHT22;7723;52.170;9.978;2022-09-09T05:15:23;15.30;99.90
15241;DHT22;7723;52.170;9.978;2022-09-09T05:17:52;15.30;99.90
15241;DHT22;7723;52.170;9.978;2022-09-09T05:20:19;15.20;99.90
15241;DHT22;7723;52.170;9.978;2022-09-09T05:22:46;15.30;99.90
15241;DHT22;7723;52.170;9.978;2022-09-09T05:25:15;15.30;99.90
15241;DHT22;7723;52.170;9.978;2022-09-09T05:27:42;15.40;99.90
15241;DHT22;7723;52.170;9.978;2022-09-09T05:30:10;15.40;99.90
15241;DHT22;7723;52.170;9.978;2022-09-09T05:32:37;15.50;99.90
15241;DHT22;7723;52.170;9.978;2022-09-09T05:35:06;15.40;99.90
15241;DHT22;7723;52.170;9.978;2022-09-09T05:37:33;15.40;99.90
15241;DHT22;7723;52.170;9.978;2022-09-09T05:40:01;15.50;99.90
15241;DHT22;7723;52.170;9.978;2022-09-09T05:42:30;15.60;99.90
15241;DHT22;7723;52.170;9.978;2022-09-09T05:44:58;15.60;99.90
15241;DHT22;7723;52.170;9.978;2022-09-09T05:47:25;15.70;99.90
15241;DHT22;7723;52.170;9.978;2022-09-09T05:49:54;15.80;99.90
15241;DHT22;7723;52.170;9.978;2022-09-09T05:52:23;15.90;99.90
15241;DHT22;7723;52.170;9.978;2022-09-09T05:54:52;15.90;99.90
15241;DHT22;7723;52.170;9.978;2022-09-09T05:57:19;16.00;99.90
15241;DHT22;7723;52.170;9.978;2022-09-09T05:59:47;16.10;99.90
15241;DHT22;7723;52.170;9.978;2022-09-09T06:02:14;16.10;99.90
15241;DHT22;7723;52.170;9.978;2022-09-09T06:04:41;16.10;99.90
15241;DHT22;7723;52.170;9.978;2022-09-09T06:07:08;16.10;99.90
15241;DHT22;7723;52.170;9.978;2022-09-09T06:09:36;16.20;99.90
15241;DHT22;7723;52.170;9.978;2022-09-09T06:12:04;16.20;99.90
15241;DHT22;7723;52.170;9.978;2022-09-09T06:14:31;16.20;99.90
15241;DHT22;7723;52.170;9.978;2022-09-09T06:16:58;16.30;99.90
15241;DHT22;7723;52.170;9.978;2022-09-09T06:19:25;16.30;99.90
15241;DHT22;7723;52.170;9.978;2022-09-09T06:21:52;16.30;99.90
15241;DHT22;7723;52.170;9.978;2022-09-09T06:24:20;16.60;99.90
15241;DHT22;7723;52.170;9.978;2022-09-09T06:26:49;17.30;99.90
15241;DHT22;7723;52.170;9.978;2022-09-09T06:29:16;17.90;99.90
15241;DHT22;7723;52.170;9.978;2022-09-09T06:31:43;18.40;99.90
15241;DHT22;7723;52.170;9.978;2022-09-09T06:34:10;18.80;99.90
15241;DHT22;7723;52.170;9.978;2022-09-09T06:36:38;19.10;96.70
15241;DHT22;7723;52.170;9.978;2022-09-09T06:39:06;19.30;81.70
15241;DHT22;7723;52.170;9.978;2022-09-09T06:41:34;19.80;69.30
15241;DHT22;7723;52.170;9.978;2022-09-09T06:44:04;19.90;53.70
15241;DHT22;7723;52.170;9.978;2022-09-09T06:46:31;20.10;38.20
15241;DHT22;7723;52.170;9.978;2022-09-09T06:48:59;20.60;33.50
15241;DHT22;7723;52.170;9.978;2022-09-09T06:51:27;20.20;27.30
15241;DHT22;7723;52.170;9.978;2022-09-09T06:53:56;20.30;26.70
15241;DHT22;7723;52.170;9.978;2022-09-09T06:56:25;20.70;23.20
15241;DHT22;7723;52.170;9.978;2022-09-09T06:58:54;21.40;16.80
15241;DHT22;7723;52.170;9.978;2022-09-09T07:01:24;22.00;9.00
15241;DHT22;7723;52.170;9.978;2022-09-09T07:03:53;22.40;2.80
15241;DHT22;7723;52.170;9.978;2022-09-09T07:06:23;22.30;2.60
15241;DHT22;7723;52.170;9.978;2022-09-09T07:08:51;21.90;2.10
15241;DHT22;7723;52.170;9.978;2022-09-09T07:11:20;21.80;2.70
15241;DHT22;7723;52.170;9.978;2022-09-09T07:13:47;22.00;4.40
15241;DHT22;7723;52.170;9.978;2022-09-09T07:16:16;22.30;1.00
15241;DHT22;7723;52.170;9.978;2022-09-09T07:18:45;22.50;1.00
15241;DHT22;7723;52.170;9.978;2022-09-09T07:21:14;22.60;1.00
15241;DHT22;7723;52.170;9.978;2022-09-09T07:23:42;23.00;1.00
15241;DHT22;7723;52.170;9.978;2022-09-09T07:26:10;23.10;1.00
15241;DHT22;7723;52.170;9.978;2022-09-09T07:28:37;23.20;1.00
15241;DHT22;7723;52.170;9.978;2022-09-09T07:31:05;23.00;1.00
15241;DHT22;7723;52.170;9.978;2022-09-09T07:33:34;22.40;1.00
15241;DHT22;7723;52.170;9.978;2022-09-09T07:36:05;22.10;1.00
15241;DHT22;7723;52.170;9.978;2022-09-09T07:38:38;21.60;1.00
15241;DHT22;7723;52.170;9.978;2022-09-09T07:41:06;22.00;1.00
15241;DHT22;7723;52.170;9.978;2022-09-09T07:43:37;22.10;1.00
15241;DHT22;7723;52.170;9.978;2022-09-09T07:46:05;22.20;1.00
15241;DHT22;7723;52.170;9.978;2022-09-09T07:48:33;22.90;1.00
15241;DHT22;7723;52.170;9.978;2022-09-09T07:51:10;23.20;1.00
15241;DHT22;7723;52.170;9.978;2022-09-09T07:53:39;23.30;1.00
15241;DHT22;7723;52.170;9.978;2022-09-09T07:56:08;23.00;1.00
15241;DHT22;7723;52.170;9.978;2022-09-09T07:58:36;21.90;1.00
15241;DHT22;7723;52.170;9.978;2022-09-09T08:01:07;21.20;1.70
15241;DHT22;7723;52.170;9.978;2022-09-09T08:03:35;21.00;3.90
15241;DHT22;7723;52.170;9.978;2022-09-09T08:06:04;20.80;6.30
15241;DHT22;7723;52.170;9.978;2022-09-09T08:08:34;20.30;11.80
15241;DHT22;7723;52.170;9.978;2022-09-09T08:11:05;20.20;18.20
15241;DHT22;7723;52.170;9.978;2022-09-09T08:13:33;19.70;17.50
15241;DHT22;7723;52.170;9.978;2022-09-09T08:16:06;19.60;25.50
15241;DHT22;7723;52.170;9.978;2022-09-09T08:18:33;19.40;25.90
15241;DHT22;7723;52.170;9.978;2022-09-09T08:21:06;19.60;29.80
15241;DHT22;7723;52.170;9.978;2022-09-09T08:23:36;19.80;26.00
15241;DHT22;7723;52.170;9.978;2022-09-09T08:26:09;20.10;26.00
15241;DHT22;7723;52.170;9.978;2022-09-09T08:28:36;20.10;23.20
15241;DHT22;7723;52.170;9.978;2022-09-09T08:31:08;20.00;21.60
15241;DHT22;7723;52.170;9.978;2022-09-09T08:33:36;20.00;20.90
15241;DHT22;7723;52.170;9.978;2022-09-09T08:36:05;20.00;23.40
15241;DHT22;7723;52.170;9.978;2022-09-09T08:38:34;20.30;21.40
15241;DHT22;7723;52.170;9.978;2022-09-09T08:41:22;20.20;20.70
15241;DHT22;7723;52.170;9.978;2022-09-09T08:44:02;20.30;18.40
15241;DHT22;7723;52.170;9.978;2022-09-09T08:46:38;20.40;16.90
15241;DHT22;7723;52.170;9.978;2022-09-09T08:49:19;20.80;17.40
15241;DHT22;7723;52.170;9.978;2022-09-09T08:51:49;22.00;6.80
15241;DHT22;7723;52.170;9.978;2022-09-09T08:54:19;21.80;3.10
15241;DHT22;7723;52.170;9.978;2022-09-09T08:56:46;22.40;2.40
15241;DHT22;7723;52.170;9.978;2022-09-09T08:59:17;23.00;1.00
15241;DHT22;7723;52.170;9.978;2022-09-09T09:02:00;23.90;1.00
15241;DHT22;7723;52.170;9.978;2022-09-09T09:04:49;24.40;1.00
15241;DHT22;7723;52.170;9.978;2022-09-09T09:07:24;23.70;1.00
15241;DHT22;7723;52.170;9.978;2022-09-09T09:10:01;23.10;1.00
15241;DHT22;7723;52.170;9.978;2022-09-09T09:12:35;22.70;1.00
15241;DHT22;7723;52.170;9.978;2022-09-09T09:15:11;22.30;1.00
15241;DHT22;7723;52.170;9.978;2022-09-09T09:17:42;22.40;1.00
15241;DHT22;7723;52.170;9.978;2022-09-09T09:20:12;22.30;1.00
15241;DHT22;7723;52.170;9.978;2022-09-09T09:22:47;22.50;1.00
15241;DHT22;7723;52.170;9.978;2022-09-09T09:25:20;22.50;1.00
15241;DHT22;7723;52.170;9.978;2022-09-09T09:27:56;22.50;1.00
15241;DHT22;7723;52.170;9.978;2022-09-09T09:30:28;22.20;1.00
15241;DHT22;7723;52.170;9.978;2022-09-09T09:32:58;21.80;1.00
15241;DHT22;7723;52.170;9.978;2022-09-09T09:35:27;21.80;1.00
15241;DHT22;7723;52.170;9.978;2022-09-09T09:37:54;22.00;1.00
15241;DHT22;7723;52.170;9.978;2022-09-09T09:40:23;22.30;1.00
15241;DHT22;7723;52.170;9.978;2022-09-09T09:42:54;22.80;1.00
15241;DHT22;7723;52.170;9.978;2022-09-09T09:45:27;23.00;1.00
15241;DHT22;7723;52.170;9.978;2022-09-09T09:48:01;23.40;1.00
15241;DHT22;7723;52.170;9.978;2022-09-09T09:50:30;23.50;1.00
15241;DHT22;7723;52.170;9.978;2022-09-09T09:53:00;23.30;1.00
15241;DHT22;7723;52.170;9.978;2022-09-09T09:55:33;23.20;1.00
15241;DHT22;7723;52.170;9.978;2022-09-09T09:58:03;22.80;1.00
15241;DHT22;7723;52.170;9.978;2022-09-09T10:00:32;22.60;1.00
15241;DHT22;7723;52.170;9.978;2022-09-09T10:03:01;22.60;1.00
15241;DHT22;7723;52.170;9.978;2022-09-09T10:05:29;22.40;1.00
15241;DHT22;7723;52.170;9.978;2022-09-09T10:08:01;22.30;1.00
15241;DHT22;7723;52.170;9.978;2022-09-09T10:10:40;22.10;1.00
15241;DHT22;7723;52.170;9.978;2022-09-09T10:13:14;22.70;1.00
15241;DHT22;7723;52.170;9.978;2022-09-09T10:15:49;23.00;1.00
15241;DHT22;7723;52.170;9.978;2022-09-09T10:18:33;22.90;1.00
15241;DHT22;7723;52.170;9.978;2022-09-09T10:21:11;22.90;1.00
15241;DHT22;7723;52.170;9.978;2022-09-09T10:23:57;22.90;1.00
15241;DHT22;7723;52.170;9.978;2022-09-09T10:26:37;22.90;1.00
15241;DHT22;7723;52.170;9.978;2022-09-09T10:29:26;22.70;1.00
15241;DHT22;7723;52.170;9.978;2022-09-09T10:32:05;22.50;1.00
15241;DHT22;7723;52.170;9.978;2022-09-09T10:34:47;22.70;1.00
15241;DHT22;7723;52.170;9.978;2022-09-09T10:37:27;22.70;1.00
15241;DHT22;7723;52.170;9.978;2022-09-09T10:40:04;22.90;1.00
15241;DHT22;7723;52.170;9.978;2022-09-09T10:42:40;23.00;1.00
15241;DHT22;7723;52.170;9.978;2022-09-09T10:45:17;23.30;1.00
15241;DHT22;7723;52.170;9.978;2022-09-09T10:48:21;23.20;1.00
15241;DHT22;7723;52.170;9.978;2022-09-09T10:50:57;23.60;1.00
15241;DHT22;7723;52.170;9.978;2022-09-09T10:53:35;23.60;1.00
15241;DHT22;7723;52.170;9.978;2022-09-09T10:56:07;22.80;1.00
15241;DHT22;7723;52.170;9.978;2022-09-09T10:58:40;22.10;1.00
15241;DHT22;7723;52.170;9.978;2022-09-09T11:01:15;22.00;1.00
15241;DHT22;7723;52.170;9.978;2022-09-09T11:03:44;21.90;1.00
15241;DHT22;7723;52.170;9.978;2022-09-09T11:06:18;21.70;1.00
15241;DHT22;7723;52.170;9.978;2022-09-09T11:08:47;21.50;3.10
15241;DHT22;7723;52.170;9.978;2022-09-09T11:11:18;21.30;3.30
15241;DHT22;7723;52.170;9.978;2022-09-09T11:13:55;21.00;20.30
15241;DHT22;7723;52.170;9.978;2022-09-09T11:16:28;20.30;26.20
15241;DHT22;7723;52.170;9.978;2022-09-09T11:19:00;19.70;62.30
15241;DHT22;7723;52.170;9.978;2022-09-09T11:21:30;18.90;52.60
15241;DHT22;7723;52.170;9.978;2022-09-09T11:24:01;18.60;49.90
15241;DHT22;7723;52.170;9.978;2022-09-09T11:26:37;18.10;95.80
15241;DHT22;7723;52.170;9.978;2022-09-09T11:32:09;17.80;99.90
15241;DHT22;7723;52.170;9.978;2022-09-09T11:34:51;17.90;99.90
15241;DHT22;7723;52.170;9.978;2022-09-09T11:37:48;18.10;99.90
15241;DHT22;7723;52.170;9.978;2022-09-09T11:40:21;18.30;99.90
15241;DHT22;7723;52.170;9.978;2022-09-09T11:42:49;18.50;99.90
15241;DHT22;7723;52.170;9.978;2022-09-09T11:45:29;18.60;99.90
15241;DHT22;7723;52.170;9.978;2022-09-09T11:47:57;18.60;99.90
15241;DHT22;7723;52.170;9.978;2022-09-09T11:50:30;18.70;99.90
15241;DHT22;7723;52.170;9.978;2022-09-09T11:53:16;18.80;99.90
15241;DHT22;7723;52.170;9.978;2022-09-09T11:55:47;18.90;99.90
15241;DHT22;7723;52.170;9.978;2022-09-09T11:58:17;19.00;99.90
15241;DHT22;7723;52.170;9.978;2022-09-09T12:00:48;19.00;99.90
15241;DHT22;7723;52.170;9.978;2022-09-09T12:03:36;18.90;99.90
15241;DHT22;7723;52.170;9.978;2022-09-09T12:06:13;18.80;99.90
15241;DHT22;7723;52.170;9.978;2022-09-09T12:08:43;18.70;99.90
15241;DHT22;7723;52.170;9.978;2022-09-09T12:11:11;18.40;99.90
15241;DHT22;7723;52.170;9.978;2022-09-09T12:13:53;18.10;99.90
15241;DHT22;7723;52.170;9.978;2022-09-09T12:16:31;17.80;99.90
15241;DHT22;7723;52.170;9.978;2022-09-09T12:19:15;17.80;99.90
15241;DHT22;7723;52.170;9.978;2022-09-09T12:21:49;17.90;99.90
15241;DHT22;7723;52.170;9.978;2022-09-09T12:24:25;18.00;99.90
15241;DHT22;7723;52.170;9.978;2022-09-09T12:26:58;18.10;99.90
15241;DHT22;7723;52.170;9.978;2022-09-09T12:29:33;18.20;99.90
15241;DHT22;7723;52.170;9.978;2022-09-09T12:32:09;18.50;99.90
15241;DHT22;7723;52.170;9.978;2022-09-09T12:34:39;18.70;99.90
15241;DHT22;7723;52.170;9.978;2022-09-09T12:37:15;18.80;99.90
15241;DHT22;7723;52.170;9.978;2022-09-09T12:39:49;18.90;99.90
15241;DHT22;7723;52.170;9.978;2022-09-09T12:42:19;19.20;99.90
15241;DHT22;7723;52.170;9.978;2022-09-09T12:44:55;19.30;99.90
15241;DHT22;7723;52.170;9.978;2022-09-09T12:47:29;19.40;99.90
15241;DHT22;7723;52.170;9.978;2022-09-09T12:49:57;19.50;99.90
15241;DHT22;7723;52.170;9.978;2022-09-09T12:52:28;19.50;99.90
15241;DHT22;7723;52.170;9.978;2022-09-09T12:54:59;19.60;99.90
15241;DHT22;7723;52.170;9.978;2022-09-09T12:57:32;19.50;99.90
15241;DHT22;7723;52.170;9.978;2022-09-09T13:00:11;19.50;99.90
15241;DHT22;7723;52.170;9.978;2022-09-09T13:02:48;19.40;99.90
15241;DHT22;7723;52.170;9.978;2022-09-09T13:05:20;19.30;99.90
15241;DHT22;7723;52.170;9.978;2022-09-09T13:07:47;19.20;99.90
15241;DHT22;7723;52.170;9.978;2022-09-09T13:10:20;19.10;99.90
15241;DHT22;7723;52.170;9.978;2022-09-09T13:12:49;18.90;99.90
15241;DHT22;7723;52.170;9.978;2022-09-09T13:15:21;18.50;99.90
15241;DHT22;7723;52.170;9.978;2022-09-09T13:17:53;18.20;99.90
15241;DHT22;7723;52.170;9.978;2022-09-09T13:20:21;17.80;99.90
15241;DHT22;7723;52.170;9.978;2022-09-09T13:22:50;17.70;99.90
15241;DHT22;7723;52.170;9.978;2022-09-09T13:25:21;17.80;99.90
15241;DHT22;7723;52.170;9.978;2022-09-09T13:27:55;17.80;99.90
15241;DHT22;7723;52.170;9.978;2022-09-09T13:30:24;18.00;99.90
15241;DHT22;7723;52.170;9.978;2022-09-09T13:33:20;18.20;99.90
15241;DHT22;7723;52.170;9.978;2022-09-09T13:35:50;18.40;99.90
15241;DHT22;7723;52.170;9.978;2022-09-09T13:38:18;18.70;99.90
15241;DHT22;7723;52.170;9.978;2022-09-09T13:40:58;19.30;99.90
15241;DHT22;7723;52.170;9.978;2022-09-09T13:43:28;19.50;99.90
15241;DHT22;7723;52.170;9.978;2022-09-09T13:45:57;19.50;99.90
15241;DHT22;7723;52.170;9.978;2022-09-09T13:48:27;19.30;98.00
15241;DHT22;7723;52.170;9.978;2022-09-09T13:51:00;19.70;99.90
15241;DHT22;7723;52.170;9.978;2022-09-09T13:53:28;19.80;99.90
15241;DHT22;7723;52.170;9.978;2022-09-09T13:55:56;19.70;99.90
15241;DHT22;7723;52.170;9.978;2022-09-09T13:58:25;19.70;99.90
15241;DHT22;7723;52.170;9.978;2022-09-09T14:00:52;19.90;99.90
15241;DHT22;7723;52.170;9.978;2022-09-09T14:03:20;20.10;99.90
15241;DHT22;7723;52.170;9.978;2022-09-09T14:05:49;20.40;99.90
15241;DHT22;7723;52.170;9.978;2022-09-09T14:08:24;20.60;99.90
15241;DHT22;7723;52.170;9.978;2022-09-09T14:10:52;20.20;90.30
15241;DHT22;7723;52.170;9.978;2022-09-09T14:13:25;20.10;96.10
15241;DHT22;7723;52.170;9.978;2022-09-09T14:15:52;20.10;99.80
15241;DHT22;7723;52.170;9.978;2022-09-09T14:18:19;20.30;99.90
15241;DHT22;7723;52.170;9.978;2022-09-09T14:20:49;20.40;65.60
15241;DHT22;7723;52.170;9.978;2022-09-09T14:23:17;20.50;59.20
15241;DHT22;7723;52.170;9.978;2022-09-09T14:25:44;20.70;77.10
15241;DHT22;7723;52.170;9.978;2022-09-09T14:28:12;21.00;84.10
15241;DHT22;7723;52.170;9.978;2022-09-09T14:30:42;21.10;61.40
15241;DHT22;7723;52.170;9.978;2022-09-09T14:33:12;21.30;63.70
15241;DHT22;7723;52.170;9.978;2022-09-09T14:35:40;21.10;34.10
15241;DHT22;7723;52.170;9.978;2022-09-09T14:38:09;20.90;24.20
15241;DHT22;7723;52.170;9.978;2022-09-09T14:40:37;20.90;30.90
15241;DHT22;7723;52.170;9.978;2022-09-09T14:43:04;20.90;44.90
15241;DHT22;7723;52.170;9.978;2022-09-09T14:45:32;20.90;39.60
15241;DHT22;7723;52.170;9.978;2022-09-09T14:47:59;20.80;29.10
15241;DHT22;7723;52.170;9.978;2022-09-09T14:50:26;20.90;33.20
15241;DHT22;7723;52.170;9.978;2022-09-09T14:52:54;20.60;19.00
15241;DHT22;7723;52.170;9.978;2022-09-09T14:55:22;20.50;3.70
15241;DHT22;7723;52.170;9.978;2022-09-09T14:57:49;20.40;9.60
15241;DHT22;7723;52.170;9.978;2022-09-09T15:00:17;20.40;9.30
15241;DHT22;7723;52.170;9.978;2022-09-09T15:02:44;20.30;3.50
15241;DHT22;7723;52.170;9.978;2022-09-09T15:05:11;20.20;3.70
15241;DHT22;7723;52.170;9.978;2022-09-09T15:07:38;20.20;9.50
15241;DHT22;7723;52.170;9.978;2022-09-09T15:10:06;20.20;4.20
15241;DHT22;7723;52.170;9.978;2022-09-09T15:12:34;20.30;7.40
15241;DHT22;7723;52.170;9.978;2022-09-09T15:15:02;20.40;3.40
15241;DHT22;7723;52.170;9.978;2022-09-09T15:17:30;20.60;1.00
15241;DHT22;7723;52.170;9.978;2022-09-09T15:19:57;20.80;2.50
15241;DHT22;7723;52.170;9.978;2022-09-09T15:22:26;20.90;1.00
15241;DHT22;7723;52.170;9.978;2022-09-09T15:24:53;21.10;1.20
15241;DHT22;7723;52.170;9.978;2022-09-09T15:27:20;21.30;2.40
15241;DHT22;7723;52.170;9.978;2022-09-09T15:29:50;21.30;1.00
15241;DHT22;7723;52.170;9.978;2022-09-09T15:32:17;21.20;1.00
15241;DHT22;7723;52.170;9.978;2022-09-09T15:34:44;21.10;1.00
15241;DHT22;7723;52.170;9.978;2022-09-09T15:37:11;21.20;1.00
15241;DHT22;7723;52.170;9.978;2022-09-09T15:39:39;21.20;1.00
15241;DHT22;7723;52.170;9.978;2022-09-09T15:42:06;21.20;1.00
15241;DHT22;7723;52.170;9.978;2022-09-09T15:44:39;21.20;1.00
15241;DHT22;7723;52.170;9.978;2022-09-09T15:47:11;21.10;1.00
15241;DHT22;7723;52.170;9.978;2022-09-09T15:49:39;21.10;1.00
15241;DHT22;7723;52.170;9.978;2022-09-09T15:52:08;21.10;1.00
15241;DHT22;7723;52.170;9.978;2022-09-09T15:54:37;20.90;1.00
15241;DHT22;7723;52.170;9.978;2022-09-09T15:57:07;20.90;1.00
15241;DHT22;7723;52.170;9.978;2022-09-09T15:59:34;20.90;1.00
15241;DHT22;7723;52.170;9.978;2022-09-09T16:02:01;20.80;1.00
15241;DHT22;7723;52.170;9.978;2022-09-09T16:04:30;20.70;1.00
15241;DHT22;7723;52.170;9.978;2022-09-09T16:06:58;20.60;1.00
15241;DHT22;7723;52.170;9.978;2022-09-09T16:09:27;20.60;1.00
15241;DHT22;7723;52.170;9.978;2022-09-09T16:11:56;20.60;1.00
15241;DHT22;7723;52.170;9.978;2022-09-09T16:14:24;20.60;1.00
15241;DHT22;7723;52.170;9.978;2022-09-09T16:16:52;20.70;1.00